createdAt,value
2023-01-19T00:00:31.286Z,99.90
2023-01-19T00:02:58.180Z,99.90
2023-01-19T00:05:24.942Z,99.90
2023-01-19T00:07:51.621Z,99.90
2023-01-19T00:10:18.264Z,99.90
2023-01-19T00:12:44.938Z,99.90
2023-01-19T00:15:11.843Z,99.90
2023-01-19T00:17:40.936Z,99.90
2023-01-19T00:20:08.933Z,99.90
2023-01-19T00:22:35.629Z,99.90
2023-01-19T00:25:02.445Z,99.90
2023-01-19T00:27:30.494Z,99.90
2023-01-19T00:29:57.155Z,99.90
2023-01-19T00:32:23.824Z,99.90
2023-01-19T00:34:52.280Z,99.90
2023-01-19T00:37:18.943Z,99.90
2023-01-19T00:39:45.598Z,99.90
2023-01-19T00:42:31.508Z,99.90
2023-01-19T00:44:58.310Z,99.90
2023-01-19T00:47:25.371Z,99.90
2023-01-19T00:49:52.069Z,99.90
2023-01-19T00:52:19.512Z,99.90
2023-01-19T00:54:46.186Z,99.90
2023-01-19T00:57:12.825Z,99.90
2023-01-19T00:59:39.523Z,99.90
2023-01-19T01:02:06.438Z,99.90
2023-01-19T01:04:34.213Z,99.90
2023-01-19T01:07:00.872Z,99.90
2023-01-19T01:09:27.669Z,99.90
2023-01-19T01:11:54.611Z,99.90
2023-01-19T01:14:21.252Z,99.90
2023-01-19T01:16:47.999Z,99.90
2023-01-19T01:19:14.913Z,99.90
2023-01-19T01:21:42.216Z,99.90
2023-01-19T01:24:09.463Z,99.90
2023-01-19T01:26:36.106Z,99.90
2023-01-19T01:29:02.799Z,99.90
2023-01-19T01:31:29.899Z,99.90
2023-01-19T01:33:56.562Z,99.90
2023-01-19T01:36:23.226Z,99.90
2023-01-19T01:38:50.944Z,99.90
2023-01-19T01:41:17.762Z,99.90
2023-01-19T01:43:49.055Z,99.90
2023-01-19T01:46:17.141Z,99.90
2023-01-19T01:48:46.498Z,99.90
2023-01-19T01:51:24.096Z,99.90
2023-01-19T01:54:11.651Z,99.90
2023-01-19T01:56:43.252Z,99.90
2023-01-19T01:59:13.167Z,99.90
2023-01-19T02:01:58.673Z,99.90
2023-01-19T02:04:26.757Z,99.90
2023-01-19T02:07:12.021Z,99.90
2023-01-19T02:09:57.861Z,99.90
2023-01-19T02:12:43.176Z,99.90
2023-01-19T02:15:20.171Z,99.90
2023-01-19T02:17:47.472Z,99.90
2023-01-19T02:20:14.374Z,99.90
2023-01-19T02:22:45.776Z,99.90
2023-01-19T02:25:12.621Z,99.90
2023-01-19T02:27:39.631Z,99.90
2023-01-19T02:30:07.469Z,99.90
2023-01-19T02:32:34.208Z,99.90
2023-01-19T02:35:00.989Z,99.90
2023-01-19T02:37:28.991Z,99.90
2023-01-19T02:39:57.718Z,99.90
2023-01-19T02:42:29.776Z,99.90
2023-01-19T02:44:57.057Z,99.90
2023-01-19T02:47:24.133Z,99.90
2023-01-19T02:49:54.471Z,99.90
2023-01-19T02:52:21.108Z,99.90
2023-01-19T02:55:04.592Z,99.90
2023-01-19T02:57:57.806Z,99.90
2023-01-19T03:00:40.461Z,99.90
2023-01-19T03:03:13.246Z,99.90
2023-01-19T03:05:46.158Z,99.90
2023-01-19T03:08:12.803Z,99.90
2023-01-19T03:10:42.812Z,99.90
2023-01-19T03:13:27.420Z,99.90
2023-01-19T03:16:03.228Z,99.90
2023-01-19T03:18:32.243Z,99.90
2023-01-19T03:21:00.356Z,99.90
2023-01-19T03:23:29.849Z,99.90
2023-01-19T03:25:58.227Z,99.90
2023-01-19T03:28:26.377Z,99.90
2023-01-19T03:30:56.304Z,99.90
2023-01-19T03:33:30.826Z,99.90
2023-01-19T03:36:03.562Z,99.90
2023-01-19T03:38:32.834Z,99.90
2023-01-19T03:41:02.178Z,99.90
2023-01-19T03:43:29.472Z,99.90
2023-01-19T03:45:56.624Z,99.90
2023-01-19T03:48:23.589Z,99.90
2023-01-19T03:50:51.079Z,99.90
2023-01-19T03:53:17.849Z,99.90
2023-01-19T03:55:48.358Z,99.90
2023-01-19T03:58:15.074Z,99.90
2023-01-19T04:00:41.748Z,99.90
2023-01-19T04:03:15.576Z,99.90
2023-01-19T04:05:42.365Z,99.90
2023-01-19T04:08:09.259Z,99.90
2023-01-19T04:10:36.162Z,99.90
2023-01-19T04:13:03.314Z,99.90
2023-01-19T04:15:30.742Z,99.90
2023-01-19T04:17:58.220Z,99.90
2023-01-19T04:20:27.017Z,99.90
2023-01-19T04:22:54.917Z,99.90
2023-01-19T04:25:21.605Z,99.90
2023-01-19T04:27:51.559Z,99.90
2023-01-19T04:30:18.547Z,99.90
2023-01-19T04:32:45.236Z,99.90
2023-01-19T04:35:11.887Z,99.90
2023-01-19T04:37:38.530Z,99.90
2023-01-19T04:40:05.495Z,99.90
2023-01-19T04:42:32.382Z,99.90
2023-01-19T04:44:59.007Z,99.90
2023-01-19T04:47:25.646Z,99.90
2023-01-19T04:49:52.317Z,99.90
2023-01-19T04:52:19.424Z,99.90
2023-01-19T04:54:46.055Z,99.90
2023-01-19T04:57:12.738Z,99.90
2023-01-19T04:59:39.455Z,99.90
2023-01-19T05:02:06.290Z,99.90
2023-01-19T05:04:32.997Z,99.90
2023-01-19T05:06:59.696Z,99.90
2023-01-19T05:09:27.200Z,99.90
2023-01-19T05:11:53.885Z,99.90
2023-01-19T05:14:20.552Z,99.90
2023-01-19T05:16:47.225Z,99.90
2023-01-19T05:19:13.893Z,99.90
2023-01-19T05:21:40.600Z,99.90
2023-01-19T05:24:07.412Z,99.90
2023-01-19T05:26:34.104Z,99.90
2023-01-19T05:29:00.835Z,99.90
2023-01-19T05:31:27.563Z,99.90
2023-01-19T05:33:54.271Z,99.90
2023-01-19T05:36:20.938Z,99.90
2023-01-19T05:38:47.647Z,99.90
2023-01-19T05:41:14.333Z,99.90
2023-01-19T05:43:41.051Z,99.90
2023-01-19T05:46:07.705Z,99.90
2023-01-19T05:48:34.330Z,99.90
2023-01-19T05:51:01.378Z,99.90
2023-01-19T05:53:28.672Z,99.90
2023-01-19T05:55:59.253Z,99.90
2023-01-19T05:58:25.925Z,99.90
2023-01-19T06:00:52.527Z,99.90
2023-01-19T06:03:19.190Z,99.90
2023-01-19T06:05:45.881Z,99.90
2023-01-19T06:08:12.508Z,99.90
2023-01-19T06:10:39.149Z,99.90
2023-01-19T06:13:05.890Z,99.90
2023-01-19T06:15:32.505Z,99.90
2023-01-19T06:17:59.141Z,99.90
2023-01-19T06:20:25.769Z,99.90
2023-01-19T06:22:52.605Z,99.90
2023-01-19T06:25:19.267Z,99.90
2023-01-19T06:27:46.322Z,99.90
2023-01-19T06:30:13.615Z,99.90
2023-01-19T06:32:40.647Z,99.90
2023-01-19T06:35:07.938Z,99.90
2023-01-19T06:37:34.994Z,99.90
2023-01-19T06:40:01.907Z,99.90
2023-01-19T06:42:28.527Z,99.90
2023-01-19T06:44:55.169Z,99.90
2023-01-19T06:47:21.838Z,99.90
2023-01-19T06:49:49.055Z,99.90
2023-01-19T06:52:17.420Z,99.90
2023-01-19T06:54:45.414Z,99.90
2023-01-19T06:57:13.155Z,99.90
2023-01-19T06:59:39.945Z,99.90
2023-01-19T07:02:26.654Z,99.90
2023-01-19T07:04:53.716Z,99.90
2023-01-19T07:07:20.383Z,99.90
2023-01-19T07:09:47.011Z,99.90
2023-01-19T07:12:14.756Z,99.90
2023-01-19T07:14:41.635Z,99.90
2023-01-19T07:17:08.696Z,99.90
2023-01-19T07:19:35.737Z,99.90
2023-01-19T07:22:03.133Z,99.90
2023-01-19T07:24:34.233Z,99.90
2023-01-19T07:27:01.086Z,99.90
2023-01-19T07:29:28.072Z,99.90
2023-01-19T07:31:55.288Z,99.90
2023-01-19T07:34:22.478Z,99.90
2023-01-19T07:36:49.473Z,99.90
2023-01-19T07:39:16.316Z,99.90
2023-01-19T07:41:43.407Z,99.90
2023-01-19T07:44:10.634Z,99.90
2023-01-19T07:46:37.613Z,99.90
2023-01-19T07:49:04.454Z,99.90
2023-01-19T07:51:31.104Z,99.90
2023-01-19T07:53:58.388Z,99.90
2023-01-19T07:56:27.695Z,99.90
2023-01-19T07:58:54.453Z,99.90
2023-01-19T08:01:21.307Z,99.90
2023-01-19T08:03:48.989Z,99.90
2023-01-19T08:06:22.966Z,99.90
2023-01-19T08:08:50.265Z,99.90
2023-01-19T08:11:17.078Z,99.90
2023-01-19T08:13:43.713Z,99.90
2023-01-19T08:16:10.453Z,99.90
2023-01-19T08:18:37.169Z,99.90
2023-01-19T08:21:04.506Z,99.90
2023-01-19T08:23:31.508Z,99.90
2023-01-19T08:25:58.157Z,99.90
2023-01-19T08:28:25.939Z,99.90
2023-01-19T08:30:55.700Z,99.90
2023-01-19T08:33:23.332Z,99.90
2023-01-19T08:35:52.106Z,99.90
2023-01-19T08:38:18.893Z,99.90
2023-01-19T08:40:45.693Z,99.90
2023-01-19T08:43:13.578Z,99.90
2023-01-19T08:45:46.498Z,99.90
2023-01-19T08:48:13.671Z,99.90
2023-01-19T08:50:40.296Z,99.90
2023-01-19T08:53:07.275Z,99.90
2023-01-19T08:55:37.613Z,99.90
2023-01-19T08:58:05.009Z,99.90
2023-01-19T09:00:33.668Z,98.20
2023-01-19T09:03:03.550Z,97.60
2023-01-19T09:05:35.751Z,96.20
2023-01-19T09:08:03.569Z,93.90
2023-01-19T09:10:35.306Z,91.50
2023-01-19T09:13:04.264Z,89.60
2023-01-19T09:15:33.918Z,89.50
2023-01-19T09:18:01.113Z,86.70
2023-01-19T09:20:30.979Z,86.70
2023-01-19T09:22:59.524Z,86.40
2023-01-19T09:25:26.381Z,83.10
2023-01-19T09:27:53.417Z,83.30
2023-01-19T09:30:20.187Z,81.30
2023-01-19T09:32:46.975Z,81.50
2023-01-19T09:35:13.628Z,79.80
2023-01-19T09:37:40.335Z,80.30
2023-01-19T09:40:09.693Z,78.80
2023-01-19T09:42:41.338Z,77.00
2023-01-19T09:45:14.582Z,75.00
2023-01-19T09:47:41.781Z,74.50
2023-01-19T09:50:26.301Z,74.70
2023-01-19T09:52:56.979Z,75.00
2023-01-19T09:55:26.125Z,75.80
2023-01-19T09:57:53.585Z,76.10
2023-01-19T10:00:22.592Z,76.10
2023-01-19T10:02:53.121Z,77.00
2023-01-19T10:05:29.422Z,75.80
2023-01-19T10:08:08.621Z,75.20
2023-01-19T10:10:36.199Z,76.60
2023-01-19T10:13:21.800Z,76.70
2023-01-19T10:15:58.486Z,77.20
2023-01-19T10:18:31.016Z,76.90
2023-01-19T10:21:05.326Z,77.40
2023-01-19T10:23:35.464Z,77.70
2023-01-19T10:26:05.914Z,77.30
2023-01-19T10:28:32.624Z,77.10
2023-01-19T10:31:00.063Z,76.30
2023-01-19T10:33:27.218Z,77.90
2023-01-19T10:35:53.890Z,80.30
2023-01-19T10:38:22.210Z,83.80
2023-01-19T10:40:48.950Z,87.20
2023-01-19T10:43:34.005Z,90.10
2023-01-19T10:46:19.551Z,91.70
2023-01-19T10:48:48.193Z,93.50
2023-01-19T10:51:15.325Z,95.20
2023-01-19T10:53:43.941Z,96.80
2023-01-19T10:56:15.700Z,98.00
2023-01-19T10:58:42.499Z,99.70
2023-01-19T11:01:17.082Z,99.90
2023-01-19T11:03:44.054Z,99.90
2023-01-19T11:06:13.793Z,99.90
2023-01-19T11:08:40.751Z,99.90
2023-01-19T11:11:12.309Z,99.90
2023-01-19T11:13:39.967Z,99.90
2023-01-19T11:16:16.378Z,99.90
2023-01-19T11:18:45.688Z,99.90
2023-01-19T11:21:16.698Z,99.90
2023-01-19T11:23:47.696Z,99.90
2023-01-19T11:26:16.330Z,99.90
2023-01-19T11:28:46.037Z,99.90
2023-01-19T11:31:15.890Z,99.90
2023-01-19T11:33:50.931Z,99.90
2023-01-19T11:36:22.283Z,99.90
2023-01-19T11:38:53.402Z,99.90
2023-01-19T11:41:20.135Z,99.90
2023-01-19T11:43:49.731Z,99.90
2023-01-19T11:46:16.901Z,99.90
2023-01-19T11:48:46.567Z,99.90
2023-01-19T11:51:18.617Z,99.90
2023-01-19T11:53:48.217Z,99.90
2023-01-19T11:56:16.854Z,99.90
2023-01-19T11:58:48.269Z,99.90
2023-01-19T12:01:25.817Z,99.90
2023-01-19T12:03:56.442Z,99.90
2023-01-19T12:06:25.510Z,99.90
2023-01-19T12:08:57.350Z,99.90
2023-01-19T12:11:32.572Z,99.90
2023-01-19T12:13:59.976Z,99.90
2023-01-19T12:16:29.105Z,99.90
2023-01-19T12:18:58.438Z,99.90
2023-01-19T12:21:25.154Z,99.90
2023-01-19T12:24:01.321Z,99.90
2023-01-19T12:26:38.835Z,99.90
2023-01-19T12:29:07.996Z,99.90
2023-01-19T12:31:35.161Z,99.90
2023-01-19T12:34:37.491Z,99.90
2023-01-19T12:37:05.529Z,99.90
2023-01-19T12:39:33.409Z,99.90
2023-01-19T12:42:05.834Z,99.90
2023-01-19T12:44:34.364Z,99.90
2023-01-19T12:47:19.969Z,99.90
2023-01-19T12:49:51.368Z,99.90
2023-01-19T12:52:18.428Z,99.90
2023-01-19T12:55:20.625Z,99.90
2023-01-19T12:57:50.193Z,99.90
2023-01-19T13:00:22.692Z,99.90
2023-01-19T13:02:50.907Z,99.90
2023-01-19T13:05:19.192Z,99.90
2023-01-19T13:08:05.301Z,99.90
2023-01-19T13:10:50.559Z,99.90
2023-01-19T13:13:21.422Z,99.90
2023-01-19T13:15:48.110Z,99.90
2023-01-19T13:18:19.851Z,99.90
2023-01-19T13:20:54.538Z,99.90
2023-01-19T13:23:23.655Z,99.90
2023-01-19T13:26:02.414Z,99.90
2023-01-19T13:28:33.531Z,99.90
2023-01-19T13:31:02.568Z,99.90
2023-01-19T13:33:32.705Z,99.90
2023-01-19T13:35:59.419Z,99.90
2023-01-19T13:38:27.181Z,99.90
2023-01-19T13:40:55.012Z,99.90
2023-01-19T13:43:27.156Z,99.90
2023-01-19T13:45:53.962Z,99.90
2023-01-19T13:48:24.184Z,99.90
2023-01-19T13:50:57.948Z,99.90
2023-01-19T13:53:24.993Z,99.90
2023-01-19T13:56:16.569Z,99.90
2023-01-19T13:58:43.349Z,99.90
2023-01-19T14:01:23.122Z,99.90
2023-01-19T14:03:52.356Z,99.90
2023-01-19T14:06:31.464Z,99.90
2023-01-19T14:09:19.027Z,99.90
2023-01-19T14:12:04.992Z,99.90
2023-01-19T14:14:31.753Z,99.90
2023-01-19T14:16:59.446Z,99.90
2023-01-19T14:19:26.120Z,99.90
2023-01-19T14:22:02.957Z,99.90
2023-01-19T14:24:32.137Z,99.90
2023-01-19T14:27:07.856Z,99.90
2023-01-19T14:29:35.022Z,99.90
2023-01-19T14:32:01.693Z,99.90
2023-01-19T14:34:28.956Z,99.90
2023-01-19T14:36:55.728Z,99.90
2023-01-19T14:39:24.295Z,99.90
2023-01-19T14:41:54.428Z,99.90
2023-01-19T14:44:37.788Z,99.90
2023-01-19T14:47:05.042Z,99.90
2023-01-19T14:49:36.142Z,99.90
2023-01-19T14:52:04.877Z,99.90
2023-01-19T14:54:34.475Z,99.90
2023-01-19T14:57:01.238Z,99.90
2023-01-19T14:59:28.063Z,99.90
2023-01-19T15:01:54.796Z,99.90
2023-01-19T15:04:21.629Z,99.90
2023-01-19T15:06:48.460Z,99.90
2023-01-19T15:09:15.991Z,99.90
2023-01-19T15:11:43.126Z,99.90
2023-01-19T15:14:20.042Z,99.90
2023-01-19T15:16:47.039Z,99.90
2023-01-19T15:19:14.841Z,99.90
2023-01-19T15:21:42.331Z,99.90
2023-01-19T15:24:10.610Z,99.90
2023-01-19T15:26:38.336Z,99.90
2023-01-19T15:29:16.310Z,99.90
2023-01-19T15:31:43.289Z,99.90
2023-01-19T15:34:12.047Z,99.90
2023-01-19T15:36:38.688Z,99.90
2023-01-19T15:39:05.359Z,99.90
2023-01-19T15:41:32.076Z,99.90
2023-01-19T15:43:59.018Z,99.90
2023-01-19T15:46:26.031Z,99.90
2023-01-19T15:48:53.368Z,99.90
2023-01-19T15:51:21.455Z,99.90
2023-01-19T15:53:48.849Z,99.90
2023-01-19T15:56:23.509Z,99.90
2023-01-19T15:58:50.544Z,99.90
2023-01-19T16:01:18.703Z,99.90
2023-01-19T16:03:45.919Z,99.90
2023-01-19T16:06:13.750Z,99.90
2023-01-19T16:08:41.226Z,99.90
2023-01-19T16:11:09.089Z,99.90
2023-01-19T16:13:35.761Z,99.90
2023-01-19T16:16:06.481Z,99.90
2023-01-19T16:18:33.160Z,99.90
2023-01-19T16:21:00.313Z,99.90
2023-01-19T16:23:26.956Z,99.90
2023-01-19T16:25:57.925Z,99.90
2023-01-19T16:28:24.999Z,99.90
2023-01-19T16:30:51.839Z,99.90
2023-01-19T16:33:18.867Z,99.90
2023-01-19T16:35:46.235Z,99.90
2023-01-19T16:38:13.020Z,99.90
2023-01-19T16:40:39.701Z,99.90
2023-01-19T16:43:06.420Z,99.90
2023-01-19T16:45:33.111Z,99.90
2023-01-19T16:47:59.825Z,99.90
2023-01-19T16:50:26.494Z,99.90
2023-01-19T16:52:56.048Z,99.90
2023-01-19T16:55:23.127Z,99.90
2023-01-19T16:57:50.001Z,99.90
2023-01-19T17:00:17.023Z,99.90
2023-01-19T17:02:43.836Z,99.90
2023-01-19T17:05:10.796Z,99.90
2023-01-19T17:07:37.639Z,99.90
2023-01-19T17:10:05.559Z,99.90
2023-01-19T17:12:32.473Z,99.90
2023-01-19T17:14:59.366Z,99.90
2023-01-19T17:17:26.054Z,99.90
2023-01-19T17:19:52.894Z,99.90
2023-01-19T17:22:19.771Z,99.90
2023-01-19T17:24:46.458Z,99.90
2023-01-19T17:27:13.089Z,99.90
2023-01-19T17:29:39.773Z,99.90
2023-01-19T17:32:06.568Z,99.90
2023-01-19T17:34:33.601Z,99.90
2023-01-19T17:37:03.111Z,99.90
2023-01-19T17:39:29.975Z,99.90
2023-01-19T17:41:56.813Z,99.90
2023-01-19T17:44:23.484Z,99.90
2023-01-19T17:46:50.164Z,99.90
2023-01-19T17:49:16.948Z,99.90
2023-01-19T17:51:43.727Z,99.90
2023-01-19T17:54:11.280Z,99.90
2023-01-19T17:56:38.728Z,99.90
2023-01-19T17:59:07.638Z,99.90
2023-01-19T18:01:37.011Z,99.90
2023-01-19T18:04:03.853Z,99.90
2023-01-19T18:06:30.504Z,99.90
2023-01-19T18:08:58.233Z,99.90
2023-01-19T18:11:25.495Z,99.90
2023-01-19T18:13:52.579Z,99.90
2023-01-19T18:16:21.113Z,99.90
2023-01-19T18:18:49.641Z,99.90
2023-01-19T18:21:16.902Z,99.90
2023-01-19T18:23:45.078Z,99.90
2023-01-19T18:26:15.665Z,99.90
2023-01-19T18:28:42.292Z,99.90
2023-01-19T18:31:10.299Z,99.90
2023-01-19T18:33:37.839Z,99.90
2023-01-19T18:36:04.730Z,99.90
2023-01-19T18:38:31.443Z,99.90
2023-01-19T18:41:06.204Z,99.90
2023-01-19T18:43:33.249Z,99.90
2023-01-19T18:46:01.027Z,99.90
2023-01-19T18:48:28.039Z,99.90
2023-01-19T18:50:54.785Z,99.90
2023-01-19T18:53:21.809Z,99.90
2023-01-19T18:55:52.680Z,99.90
2023-01-19T18:58:19.624Z,99.90
2023-01-19T19:00:47.873Z,99.90
2023-01-19T19:03:14.704Z,99.90
2023-01-19T19:05:41.620Z,99.90
2023-01-19T19:08:08.677Z,99.90
2023-01-19T19:10:35.630Z,99.90
2023-01-19T19:13:02.997Z,99.90
2023-01-19T19:15:31.486Z,99.90
2023-01-19T19:17:58.142Z,99.90
2023-01-19T19:20:25.105Z,99.90
2023-01-19T19:22:51.795Z,99.90
2023-01-19T19:25:18.759Z,99.90
2023-01-19T19:27:47.952Z,99.90
2023-01-19T19:30:15.073Z,99.90
2023-01-19T19:32:42.120Z,99.90
2023-01-19T19:35:08.997Z,99.90
2023-01-19T19:37:35.636Z,99.90
2023-01-19T19:40:02.382Z,99.90
2023-01-19T19:42:30.109Z,99.90
2023-01-19T19:44:56.811Z,99.90
2023-01-19T19:47:24.484Z,99.90
2023-01-19T19:49:51.666Z,99.90
2023-01-19T19:52:18.552Z,99.90
2023-01-19T19:54:47.584Z,99.90
2023-01-19T19:57:14.325Z,99.90
2023-01-19T19:59:41.034Z,99.90
2023-01-19T20:02:09.451Z,99.90
2023-01-19T20:04:36.124Z,99.90
2023-01-19T20:07:02.886Z,99.90
2023-01-19T20:09:29.576Z,99.90
2023-01-19T20:11:56.275Z,99.90
2023-01-19T20:14:23.853Z,99.90
2023-01-19T20:16:50.693Z,99.90
2023-01-19T20:19:18.250Z,99.90
2023-01-19T20:21:45.126Z,99.90
2023-01-19T20:24:16.488Z,99.90
2023-01-19T20:26:45.215Z,99.90
2023-01-19T20:29:12.174Z,99.90
2023-01-19T20:31:41.705Z,99.90
2023-01-19T20:34:09.248Z,99.90
2023-01-19T20:36:36.174Z,99.90
2023-01-19T20:39:08.574Z,99.90
2023-01-19T20:41:38.864Z,99.90
2023-01-19T20:44:05.490Z,99.90
2023-01-19T20:46:32.165Z,99.90
2023-01-19T20:48:58.829Z,99.90
2023-01-19T20:51:26.823Z,99.90
2023-01-19T20:53:53.517Z,99.90
2023-01-19T20:56:20.226Z,99.90
2023-01-19T20:58:47.025Z,99.90
2023-01-19T21:01:15.723Z,99.90
2023-01-19T21:03:42.965Z,99.90
2023-01-19T21:06:10.191Z,99.90
2023-01-19T21:08:37.348Z,99.90
2023-01-19T21:11:04.758Z,99.90
2023-01-19T21:13:31.692Z,99.90
2023-01-19T21:15:58.610Z,99.90
2023-01-19T21:18:27.828Z,99.90
2023-01-19T21:20:55.483Z,99.90
2023-01-19T21:23:22.214Z,99.90
2023-01-19T21:25:53.007Z,99.90
2023-01-19T21:28:19.974Z,99.90
2023-01-19T21:30:46.931Z,99.90
2023-01-19T21:33:13.766Z,99.90
2023-01-19T21:35:40.521Z,99.90
2023-01-19T21:38:07.201Z,99.90
2023-01-19T21:40:33.836Z,99.90
2023-01-19T21:43:00.519Z,99.90
2023-01-19T21:45:27.482Z,99.90
2023-01-19T21:47:54.290Z,99.90
2023-01-19T21:50:21.103Z,99.90
2023-01-19T21:52:47.787Z,99.90
2023-01-19T21:55:15.031Z,99.90
2023-01-19T21:57:42.233Z,99.90
2023-01-19T22:00:10.220Z,99.90
2023-01-19T22:02:39.092Z,99.90
2023-01-19T22:05:06.555Z,99.90
2023-01-19T22:07:33.260Z,99.90
2023-01-19T22:09:59.972Z,99.90
2023-01-19T22:12:26.773Z,99.90
2023-01-19T22:14:53.636Z,99.90
2023-01-19T22:17:20.315Z,99.90
2023-01-19T22:19:47.767Z,99.90
2023-01-19T22:22:15.037Z,99.90
2023-01-19T22:24:46.595Z,99.90
2023-01-19T22:27:13.353Z,99.90
2023-01-19T22:29:40.164Z,99.90
2023-01-19T22:32:07.129Z,99.90
2023-01-19T22:34:34.017Z,99.90
2023-01-19T22:37:00.853Z,99.90
2023-01-19T22:39:27.537Z,99.90
2023-01-19T22:41:54.195Z,99.90
2023-01-19T22:44:21.791Z,99.90
2023-01-19T22:46:49.301Z,99.90
2023-01-19T22:49:16.865Z,99.90
2023-01-19T22:51:43.836Z,99.90
2023-01-19T22:54:10.899Z,99.90
2023-01-19T22:56:38.856Z,99.90
2023-01-19T22:59:05.746Z,99.90
2023-01-19T23:01:33.930Z,99.90
2023-01-19T23:04:01.255Z,99.90
2023-01-19T23:06:28.989Z,99.90
2023-01-19T23:08:56.864Z,99.90
2023-01-19T23:11:24.754Z,99.90
2023-01-19T23:13:51.953Z,99.90
2023-01-19T23:16:18.918Z,99.90
2023-01-19T23:18:45.839Z,99.90
2023-01-19T23:21:12.461Z,99.90
2023-01-19T23:23:39.426Z,99.90
2023-01-19T23:26:08.224Z,99.90
2023-01-19T23:28:36.640Z,99.90
2023-01-19T23:31:22.407Z,99.90
2023-01-19T23:33:53.200Z,99.90
2023-01-19T23:36:20.257Z,99.90
2023-01-19T23:38:51.243Z,99.90
2023-01-19T23:41:18.249Z,99.90
2023-01-19T23:43:44.890Z,99.90
2023-01-19T23:46:12.349Z,99.90
2023-01-19T23:48:39.508Z,99.90
2023-01-19T23:51:16.898Z,99.90
2023-01-19T23:53:43.800Z,99.90
2023-01-19T23:56:15.018Z,99.90
2023-01-19T23:58:41.873Z,99.90
